Date,TemperatureHighF,TemperatureAvgF,TemperatureLowF,DewpointHighF,DewpointAvgF,DewpointLowF,HumidityHigh,HumidityAvg,HumidityLow,PressureMaxIn,PressureMinIn,WindSpeedMaxMPH,WindSpeedAvgMPH,GustSpeedMaxMPH,PrecipitationSumIn
2013-1-1,33.0,23.3,2.3,29.0,14.6,-1.0,88,70,54,30.10,29.85,5,1,10,0.00
2013-1-2,23.2,9.2,-2.5,18.0,4.3,-6.0,89,81,63,30.38,30.08,7,1,11,0.00
2013-1-3,13.6,3.7,-10.0,9.0,-2.6,-14.0,83,76,59,30.40,30.12,5,0,7,0.00
2013-1-4,33.9,27.1,13.4,25.0,21.1,9.0,99,78,68,30.11,29.95,7,1,11,0.00
2013-1-5,35.0,28.8,17.6,26.0,21.1,14.0,86,74,54,30.36,29.99,6,1,10,0.04
2013-1-6,35.4,28.4,18.2,30.0,25.0,15.0,93,87,75,30.31,30.04,5,0,6,0.03
2013-1-7,31.6,22.9,11.5,31.0,18.7,9.0,96,84,72,30.51,30.09,10,2,13,0.00
2013-1-8,37.9,20.3,6.9,27.0,15.7,4.0,91,83,64,30.52,30.40,6,0,9,0.03
2013-1-9,40.4,25.0,10.0,32.0,20.8,7.0,92,84,70,30.52,30.10,4,0,9,0.08
2013-1-10,42.9,36.0,24.7,32.0,26.2,21.0,88,68,53,30.69,30.25,7,1,12,0.14
2013-1-11,35.6,28.8,21.1,33.0,25.7,19.0,95,88,74,30.68,30.25,2,0,4,0.11
2013-1-12,40.8,36.3,32.9,40.0,35.3,32.0,97,96,95,30.29,30.21,1,0,4,0.03
2013-1-13,46.4,38.9,33.9,46.0,38.1,33.0,98,97,95,30.25,30.03,5,0,10,0.01
2013-1-14,47.6,40.0,29.7,44.0,35.6,26.0,97,85,59,30.43,29.94,9,1,12,0.02
2013-1-15,34.1,29.5,24.6,28.0,24.9,23.0,93,83,69,30.47,30.35,6,0,8,0.00
2013-1-16,30.3,28.6,24.5,29.0,26.6,23.0,95,92,83,30.35,29.95,2,0,4,0.00
2013-1-17,35.3,28.2,15.5,31.0,22.2,6.0,95,79,57,30.28,29.96,5,1,10,0.03
2013-1-18,19.9,13.3,2.6,10.0,4.4,-3.0,82,68,52,30.52,30.25,10,1,11,0.00
2013-1-19,38.5,31.8,19.8,28.0,21.2,10.0,78,65,57,30.39,29.95,10,2,15,0.04
2013-1-20,43.2,33.3,19.8,33.0,21.0,8.0,83,61,48,30.12,29.60,9,2,20,0.04
2013-1-21,22.9,19.6,15.0,18.0,11.0,5.0,89,70,59,30.18,29.91,9,1,10,0.00
2013-1-22,18.3,12.3,6.5,13.0,4.5,-3.0,88,72,51,30.23,29.90,7,1,13,0.00
2013-1-23,12.2,5.0,-2.2,-3.0,-8.6,-12.0,75,54,38,30.32,30.22,7,1,10,0.00
2013-1-24,16.1,3.4,-8.0,-2.0,-7.5,-13.0,82,63,38,30.51,30.30,6,0,9,0.00
2013-1-25,14.0,6.8,-3.2,7.0,-3.1,-8.0,82,66,43,30.55,30.23,6,1,8,0.00
2013-1-26,17.2,9.9,3.4,6.0,3.2,0.0,87,75,57,30.46,30.21,8,1,10,0.00
2013-1-27,23.1,11.1,-0.5,7.0,2.8,-4.0,86,71,45,30.64,30.46,4,0,6,0.00
2013-1-28,25.3,18.0,8.8,24.0,14.6,5.0,93,86,76,30.62,30.10,2,0,5,0.00
2013-1-29,34.9,30.2,25.5,34.0,28.5,24.0,96,93,90,30.28,30.11,2,0,4,0.16
2013-1-30,56.3,46.4,34.3,55.0,45.0,33.0,97,95,88,30.13,29.42,9,1,16,0.35
2013-1-31,53.0,38.0,25.2,52.0,30.1,14.0,97,74,54,29.70,28.98,11,3,20,0.61
2013-2-1,25.6,22.5,16.6,17.0,11.0,5.0,79,62,52,30.25,29.71,8,2,12,0.00
2013-2-2,23.5,17.3,8.1,18.0,10.5,4.0,87,75,62,30.34,30.15,13,1,14,0.00
2013-2-3,25.8,17.6,7.8,16.0,11.5,5.0,88,78,60,30.17,29.89,5,0,6,0.00
2013-2-4,25.1,18.7,12.8,16.0,9.8,4.0,90,70,47,30.07,29.89,10,1,12,0.00
2013-2-5,25.9,17.3,6.4,16.0,9.8,3.0,87,73,52,30.15,30.02,7,1,7,0.00
2013-2-6,34.1,25.1,15.3,25.0,13.9,3.0,90,65,33,30.48,30.02,10,1,18,0.00
2013-2-7,21.3,15.4,9.8,7.0,3.3,-1.0,76,59,46,30.69,30.48,6,1,11,0.00
2013-2-8,31.1,22.1,16.5,23.0,16.8,7.0,92,80,66,30.52,29.95,10,1,14,0.00
2013-2-9,22.1,13.4,0.0,20.0,6.4,-6.0,91,74,57,30.49,29.97,12,4,26,0.01
2013-2-10,28.4,7.2,-10.0,10.0,-0.7,-14.0,82,71,45,30.65,30.43,4,0,5,0.05
2013-2-11,41.3,28.4,6.9,38.0,25.6,3.0,95,89,81,30.43,29.77,5,0,9,0.27
2013-2-12,37.0,34.4,31.3,32.0,29.0,26.0,92,81,73,30.01,29.79,7,1,11,0.04
2013-2-13,35.1,30.4,24.8,27.0,24.4,20.0,88,79,63,29.99,29.86,6,1,9,0.02
2013-2-14,36.8,27.7,16.8,26.0,21.5,14.0,91,78,60,30.08,29.85,6,1,9,0.00
2013-2-15,44.4,35.6,26.6,32.0,27.9,23.0,93,75,50,30.11,30.00,12,1,16,0.02
2013-2-16,32.9,27.4,21.1,28.0,19.2,8.0,93,73,53,30.12,29.99,8,2,15,0.02
2013-2-17,22.1,16.8,10.6,9.0,4.6,0.0,70,59,45,30.04,29.78,9,4,18,0.00
2013-2-18,28.9,16.0,4.4,10.0,3.3,-1.0,79,60,31,30.31,30.05,7,1,10,0.00
2013-2-19,43.7,26.9,13.1,34.0,20.7,8.0,95,78,51,30.30,29.74,13,1,23,0.16
2013-2-20,32.3,26.7,23.1,31.0,20.2,16.0,94,77,61,29.96,29.75,6,1,15,0.01
2013-2-21,25.1,21.0,16.0,17.0,12.2,6.0,81,69,57,30.52,29.96,8,1,9,0.00
2013-2-22,35.5,27.9,20.9,27.0,22.0,17.0,92,79,64,30.55,30.36,4,1,8,0.05
2013-2-23,36.4,33.3,29.5,32.0,29.5,26.0,94,86,76,30.36,30.00,10,2,13,0.11
2013-2-24,34.8,32.7,31.4,34.0,31.5,30.0,95,95,94,30.07,29.89,1,0,4,0.16
2013-2-25,36.6,31.7,27.6,31.0,29.2,26.0,95,90,80,30.36,30.09,2,0,4,0.04
2013-2-26,40.0,33.8,26.7,35.0,29.1,26.0,96,84,63,30.44,30.18,6,1,10,0.00
2013-2-27,42.7,37.8,31.9,36.0,31.9,26.0,93,80,63,30.18,29.70,13,2,21,0.21
2013-2-28,42.3,35.7,32.4,35.0,32.1,30.0,94,87,72,29.72,29.67,3,0,7,0.01
2013-3-1,35.9,33.5,30.9,33.0,30.1,28.0,94,87,77,29.89,29.71,7,2,11,0.01
2013-3-2,32.6,30.0,24.2,29.0,25.8,22.0,91,84,76,29.89,29.84,5,1,10,0.05
2013-3-3,29.3,25.7,21.5,26.0,22.2,19.0,90,86,80,29.88,29.81,6,0,6,0.08
2013-3-4,34.1,28.0,23.0,24.0,20.7,19.0,85,75,63,30.02,29.85,6,1,10,0.01
2013-3-5,37.3,30.3,26.7,28.0,23.7,20.0,87,77,68,30.22,30.02,7,1,14,0.01
2013-3-6,38.7,33.9,26.3,32.0,26.8,23.0,90,76,63,30.27,30.18,11,3,18,0.01
2013-3-7,35.9,32.4,28.0,28.0,25.0,22.0,92,75,60,30.28,30.23,11,4,14,0.00
2013-3-8,38.7,31.5,27.7,29.0,26.1,24.0,92,81,63,30.42,30.22,14,5,21,0.16
2013-3-9,50.0,35.0,25.1,28.0,23.9,19.0,86,66,36,30.47,30.40,10,2,11,0.05
2013-3-10,51.4,36.3,20.3,31.0,25.5,18.0,92,68,41,30.48,30.30,8,1,10,0.00
2013-3-11,49.6,41.4,31.7,36.0,31.7,28.0,88,69,52,30.34,30.11,9,1,12,0.00
2013-3-12,50.4,46.2,35.9,49.0,43.2,35.0,95,89,71,30.13,29.76,12,3,16,1.11
2013-3-13,43.7,36.7,32.4,34.0,28.6,21.0,96,75,46,29.96,29.87,8,1,15,0.01
2013-3-14,32.0,25.7,22.4,25.0,15.4,8.0,83,65,52,30.04,29.92,9,2,14,0.00
2013-3-15,33.0,25.9,16.9,30.0,18.1,8.0,90,73,56,30.06,29.74,12,2,16,0.00
2013-3-16,31.3,25.7,18.0,23.0,15.9,12.0,83,67,52,30.03,29.89,6,1,10,0.00
2013-3-17,33.0,24.0,14.5,17.0,10.6,5.0,89,60,34,30.47,30.03,10,2,13,0.00
2013-3-18,36.6,23.9,9.9,25.0,9.4,4.0,90,57,29,30.58,30.23,7,1,14,0.00
2013-3-19,34.1,30.1,27.2,32.0,28.2,25.0,94,92,90,30.22,29.82,2,0,6,0.11
2013-3-20,34.3,25.5,17.9,26.0,21.7,15.0,93,85,69,29.92,29.84,11,2,15,0.08
2013-3-21,34.7,23.1,9.6,23.0,16.7,7.0,92,77,54,29.93,29.77,6,1,9,0.13
2013-3-22,33.7,24.2,13.4,29.0,19.2,11.0,91,81,70,29.93,29.79,9,2,11,0.03
2013-3-23,39.6,31.9,22.8,24.0,21.7,19.0,89,68,49,29.98,29.86,6,1,12,0.15
2013-3-24,39.7,34.7,29.4,26.0,24.1,23.0,79,66,55,30.01,29.90,8,2,11,0.03
2013-3-25,41.7,34.5,26.7,29.0,25.8,22.0,85,71,54,29.92,29.66,8,2,13,0.00
2013-3-26,44.2,35.6,26.1,30.0,25.9,22.0,87,69,45,29.96,29.72,6,2,12,0.00
2013-3-27,47.7,34.6,22.1,31.0,26.2,19.0,91,74,44,30.05,29.94,6,1,10,0.00
2013-3-28,46.0,38.1,32.4,36.0,32.4,28.0,93,80,63,30.20,30.05,5,0,7,0.01
2013-3-29,46.8,37.3,26.7,36.0,31.2,25.0,93,79,62,30.23,30.15,5,1,7,0.00
2013-3-30,52.4,39.1,26.6,33.0,24.6,18.0,92,61,27,30.25,30.15,6,1,10,0.00
2013-3-31,53.5,38.2,22.9,38.0,26.9,19.0,92,67,38,30.24,29.84,19,3,23,0.21
2013-4-1,47.3,38.2,28.9,42.0,31.2,16.0,96,77,42,29.96,29.65,7,2,13,0.13
2013-4-2,34.0,28.8,23.1,24.0,17.7,15.0,84,64,48,30.10,29.96,10,3,18,0.01
2013-4-3,40.3,31.7,23.0,19.0,15.0,11.0,75,52,30,30.37,30.09,9,2,13,0.00
2013-4-4,47.8,36.0,22.6,26.0,22.3,18.0,83,60,39,30.44,30.07,13,3,18,0.00
2013-4-5,53.4,41.7,31.4,29.0,25.0,20.0,78,53,34,30.09,29.84,14,2,14,0.00
2013-4-6,42.8,33.6,26.1,20.0,12.6,7.0,66,44,24,30.42,30.09,5,1,14,0.00
2013-4-7,57.5,43.8,26.6,40.0,28.4,17.0,80,57,33,30.38,29.98,19,6,29,0.00
2013-4-8,56.9,48.5,41.5,40.0,36.3,33.0,81,64,40,30.23,30.04,7,1,10,0.00
2013-4-9,59.2,52.1,43.7,49.0,43.6,40.0,95,74,55,30.13,29.92,7,1,12,0.01
2013-4-10,52.9,47.7,43.1,48.0,45.2,42.0,96,91,82,30.14,29.95,6,1,9,0.70
2013-4-11,43.1,36.5,32.0,42.0,29.2,23.0,94,75,60,30.27,30.01,11,3,19,0.03
2013-4-12,37.7,34.9,32.6,36.0,31.7,24.0,94,88,69,30.25,29.91,7,1,14,0.48
2013-4-13,48.3,40.7,35.3,40.0,36.8,34.0,95,87,69,30.05,29.92,7,1,11,0.10
2013-4-14,45.6,39.7,29.7,37.0,32.0,26.0,94,76,50,30.36,30.05,7,1,10,0.01
2013-4-15,57.7,42.9,26.8,38.0,32.1,24.0,93,69,45,30.49,30.34,6,1,11,0.00
2013-4-16,58.4,53.2,46.7,53.0,44.4,33.0,92,73,56,30.41,30.10,18,3,22,0.16
2013-4-17,59.6,49.9,38.9,50.0,36.7,32.0,92,63,42,30.45,30.21,8,2,16,0.00
2013-4-18,61.3,48.8,33.0,49.0,37.2,30.0,91,66,43,30.45,30.12,14,4,25,0.00
2013-4-19,70.2,63.3,55.8,61.0,56.3,50.0,87,78,70,30.11,29.57,19,7,27,0.02
2013-4-20,50.5,43.4,34.0,42.0,33.4,21.0,93,70,45,30.41,29.81,10,2,15,0.04
2013-4-21,47.6,37.9,28.3,25.0,20.7,18.0,71,52,32,30.79,30.41,8,2,12,0.65
2013-4-22,55.7,42.5,28.0,31.0,24.2,20.0,79,52,27,30.83,30.63,10,3,15,0.00
2013-4-23,52.7,43.0,28.3,40.0,32.8,24.0,85,68,57,30.64,30.26,6,1,10,0.00
2013-4-24,69.7,52.8,32.6,51.0,42.0,31.0,95,70,44,30.26,29.78,8,2,15,0.00
2013-4-25,63.1,47.2,37.7,52.0,34.0,27.0,85,62,36,30.38,29.80,12,2,14,0.02
2013-4-26,55.0,42.4,32.5,39.0,32.8,29.0,91,71,43,30.55,30.37,5,0,9,0.00
2013-4-27,61.4,46.9,31.1,42.0,33.6,25.0,94,65,27,30.56,30.39,6,1,9,0.00
2013-4-28,69.9,53.5,33.7,47.0,38.8,31.0,89,61,33,30.43,30.20,8,1,10,0.00
2013-4-29,60.5,56.8,52.2,47.0,41.7,35.0,72,58,48,30.32,30.25,12,2,15,0.00
2013-4-30,70.2,58.5,49.4,50.0,43.6,39.0,80,59,42,30.40,30.32,8,1,15,0.00
2013-5-1,75.7,59.1,41.3,47.0,40.9,37.0,84,55,29,30.55,30.39,8,1,9,0.00
2013-5-2,78.9,63.1,43.6,50.0,43.4,38.0,89,53,27,30.56,30.35,9,2,20,0.00
2013-5-3,69.9,60.0,51.5,45.0,37.4,31.0,73,45,27,30.57,30.40,6,1,14,0.00
2013-5-4,74.2,59.2,42.2,49.0,42.4,33.0,93,59,24,30.45,30.27,8,1,13,0.00
2013-5-5,73.7,58.2,40.0,47.0,38.3,33.0,81,51,28,30.39,30.22,5,1,8,0.00
2013-5-6,73.3,57.3,41.2,49.0,41.7,35.0,92,60,25,30.35,30.17,8,1,11,0.00
2013-5-7,77.9,62.6,44.2,57.0,49.8,41.0,93,66,39,30.27,30.12,7,0,9,0.00
2013-5-8,72.2,63.1,52.2,60.0,55.6,50.0,94,78,56,30.24,30.09,7,2,14,0.05
2013-5-9,67.7,59.6,50.5,57.0,53.8,49.0,96,82,61,30.09,29.95,8,1,12,0.00
2013-5-10,73.1,62.9,51.4,60.0,54.5,50.0,96,76,50,30.07,29.90,5,1,11,0.00
2013-5-11,67.1,61.8,55.9,63.0,58.5,53.0,95,89,72,29.91,29.73,9,1,16,0.20
2013-5-12,58.1,52.7,44.1,53.0,42.3,30.0,93,70,40,29.94,29.74,9,2,13,0.01
2013-5-13,47.7,42.8,36.7,35.0,33.3,31.0,86,70,57,30.19,29.94,12,2,15,0.01
2013-5-14,53.1,43.3,30.7,37.0,32.9,29.0,94,70,42,30.23,30.12,5,1,9,0.00
2013-5-15,58.9,46.2,30.8,52.0,40.0,29.0,94,80,49,30.17,29.72,16,2,23,0.05
2013-5-16,74.3,59.6,41.4,49.0,43.2,34.0,96,61,27,29.97,29.76,10,2,16,0.00
2013-5-17,65.8,54.4,42.2,43.0,41.2,38.0,90,63,40,30.34,29.98,5,1,12,0.00
2013-5-18,69.0,55.9,38.3,48.0,42.7,36.0,93,65,35,30.42,30.30,7,1,9,0.00
2013-5-19,61.5,54.2,45.4,55.0,51.1,43.0,95,89,76,30.40,30.25,11,1,14,0.01
2013-5-20,71.8,62.2,54.9,65.0,59.1,54.0,96,90,77,30.25,30.04,8,1,8,0.00
2013-5-21,81.3,67.6,58.8,69.0,62.5,57.0,97,85,60,30.05,29.87,7,1,14,0.00
2013-5-22,76.6,66.7,60.5,71.0,64.3,59.0,97,92,79,29.95,29.85,6,1,13,0.00
2013-5-23,74.3,68.1,63.1,67.0,65.3,62.0,96,90,75,29.90,29.80,8,1,13,0.00
2013-5-24,64.3,51.4,42.4,63.0,49.5,41.0,96,93,85,30.09,29.73,9,2,19,0.00
2013-5-25,44.2,42.4,40.8,43.0,40.8,39.0,99,94,92,30.08,30.01,11,2,19,0.34
2013-5-26,50.3,44.6,40.5,47.0,42.6,39.0,95,92,85,30.23,29.97,5,1,9,0.33
2013-5-27,66.9,52.1,37.2,47.0,41.6,36.0,97,72,37,30.30,30.19,5,1,7,0.00
2013-5-28,69.3,55.9,39.5,53.0,46.9,38.0,95,74,45,30.34,30.21,5,0,7,0.00
2013-5-29,69.5,62.1,55.9,68.0,60.4,53.0,96,94,84,30.21,30.02,2,0,5,0.38
2013-5-30,82.4,69.8,57.8,72.0,65.0,57.0,97,85,66,30.19,30.10,6,1,12,0.01
2013-5-31,85.9,72.7,59.6,72.0,66.2,58.0,97,81,58,30.19,30.00,7,1,10,0.00
2013-6-1,85.1,74.7,62.5,71.0,67.0,61.0,96,78,60,30.05,29.89,7,1,11,0.00
2013-6-2,82.8,71.8,65.8,72.0,67.8,65.0,96,87,67,29.90,29.73,10,1,14,0.98
2013-6-3,66.8,62.0,50.2,64.0,55.8,42.0,97,81,63,30.01,29.89,11,2,16,0.00
2013-6-4,69.5,56.8,43.7,50.0,45.7,41.0,91,69,44,30.23,30.01,6,1,11,0.00
2013-6-5,69.3,59.1,46.1,53.0,48.7,43.0,94,71,41,30.31,30.20,5,0,7,0.00
2013-6-6,71.5,61.0,50.8,55.0,51.1,47.0,93,71,50,30.25,30.14,11,1,14,0.15
2013-6-7,56.7,54.7,53.3,55.0,53.2,52.0,96,95,93,30.14,29.92,5,0,6,0.74
2013-6-8,66.6,58.7,52.3,62.0,56.7,51.0,97,93,85,30.13,29.84,6,0,8,0.26
2013-6-9,73.3,63.3,55.3,62.0,57.6,54.0,96,83,62,30.27,30.13,7,1,12,0.00
2013-6-10,67.7,60.2,52.6,63.0,57.9,51.0,96,92,81,30.28,29.99,2,0,6,0.18
2013-6-11,62.7,59.9,57.4,61.0,58.7,56.0,96,96,94,29.98,29.65,3,0,8,1.03
2013-6-12,67.4,59.7,55.4,57.0,54.8,53.0,95,85,61,29.95,29.70,9,1,21,0.04
2013-6-13,58.6,54.9,50.2,58.0,53.6,49.0,96,95,92,29.93,29.79,2,0,7,0.64
2013-6-14,74.0,61.8,52.3,60.0,54.2,50.0,97,79,44,29.95,29.79,7,1,18,0.00
2013-6-15,72.7,60.9,47.6,56.0,50.7,46.0,96,72,45,30.08,29.95,5,1,10,0.00
2013-6-16,70.7,60.0,49.5,62.0,55.5,47.0,94,85,66,30.05,29.80,7,1,11,0.01
2013-6-17,77.5,63.9,56.0,65.0,60.4,55.0,97,89,59,30.01,29.87,8,1,12,0.33
2013-6-18,60.0,56.5,51.7,59.0,54.6,50.0,96,93,86,30.08,30.00,5,0,10,0.08
2013-6-19,68.7,57.4,47.2,50.0,45.8,40.0,96,68,35,30.28,30.07,7,1,11,0.00
2013-6-20,71.8,59.1,43.3,57.0,49.6,42.0,95,73,47,30.38,30.28,6,1,9,0.00
2013-6-21,77.8,65.0,53.0,61.0,56.0,51.0,95,75,47,30.36,30.29,4,0,6,0.00
2013-6-22,79.9,68.7,56.0,69.0,62.6,54.0,95,82,66,30.31,30.16,8,1,11,0.00
2013-6-23,84.8,73.9,66.4,75.0,68.7,64.0,94,84,65,30.20,30.02,7,1,11,0.01
2013-6-24,86.3,72.4,64.9,76.0,68.6,64.0,96,88,68,30.10,29.99,8,1,10,0.20
2013-6-25,83.6,70.8,63.6,75.0,67.5,63.0,97,90,68,30.06,29.84,6,1,11,0.50
2013-6-26,73.8,69.6,66.5,70.0,67.9,65.0,97,94,82,29.90,29.83,2,0,9,0.04
2013-6-27,82.9,72.7,64.3,73.0,67.9,63.0,97,86,66,29.90,29.72,5,1,13,0.02
2013-6-28,77.2,70.9,66.0,70.0,66.8,64.0,95,87,72,29.73,29.49,12,2,21,0.71
2013-6-29,78.0,71.0,65.4,70.0,66.7,64.0,97,87,70,29.77,29.56,8,1,12,0.00
2013-6-30,83.2,72.2,63.1,72.0,67.3,62.0,96,85,63,29.99,29.76,6,1,10,0.01
2013-7-1,74.2,69.2,65.4,71.0,67.2,64.0,96,93,86,30.11,30.00,4,0,8,0.33
2013-7-2,81.0,69.1,62.4,76.0,67.3,61.0,97,94,84,30.21,30.11,2,0,6,1.24
2013-7-3,82.2,74.8,67.9,75.0,71.6,67.0,98,90,75,30.27,30.18,7,1,12,0.00
2013-7-4,85.6,77.8,69.6,77.0,73.3,69.0,97,86,72,30.28,30.14,6,1,10,0.00
2013-7-5,86.6,77.6,71.3,77.0,73.3,70.0,96,87,71,30.23,30.10,7,1,12,0.70
2013-7-6,83.0,74.5,68.8,74.0,70.7,67.0,97,88,68,30.19,30.09,5,1,8,0.10
2013-7-7,85.3,74.0,65.5,77.0,70.4,64.0,96,88,73,30.14,29.97,5,1,9,0.12
2013-7-8,78.8,74.1,71.0,73.0,70.9,69.0,97,90,79,30.12,30.00,2,0,9,0.28
2013-7-9,83.5,74.1,68.4,74.0,70.2,67.0,97,88,69,30.16,30.05,5,0,6,0.00
2013-7-10,81.3,74.0,70.4,75.0,71.5,68.0,96,92,78,30.07,29.84,9,1,14,0.18
2013-7-11,78.8,72.6,67.8,71.0,67.4,59.0,97,84,64,30.07,29.83,6,1,10,0.01
2013-7-12,80.1,70.3,62.0,68.0,62.7,59.0,90,77,60,30.26,30.07,6,1,10,0.00
2013-7-13,77.6,70.6,63.5,72.0,66.2,60.0,94,86,72,30.38,30.27,6,0,9,0.00
2013-7-14,82.5,75.8,70.3,75.0,71.8,69.0,95,88,75,30.40,30.30,5,0,7,0.00
2013-7-15,88.4,76.2,68.6,75.0,70.8,66.0,97,84,63,30.33,30.20,4,0,7,0.00
2013-7-16,87.4,76.1,65.8,75.0,69.5,64.0,96,81,58,30.31,30.23,5,0,7,0.00
2013-7-17,88.4,78.0,68.3,77.0,72.2,67.0,96,83,65,30.29,30.06,7,1,9,0.00
2013-7-18,89.6,80.1,71.9,78.0,74.6,70.0,95,84,67,30.12,29.99,7,1,9,0.00
2013-7-19,91.5,80.3,69.8,78.0,73.2,68.0,95,80,57,30.01,29.77,9,1,12,0.19
2013-7-20,83.0,72.8,66.4,74.0,68.8,64.0,97,87,68,29.92,29.77,7,1,10,0.00
2013-7-21,77.9,69.0,61.3,68.0,63.4,60.0,96,83,67,30.09,29.92,3,0,7,0.00
2013-7-22,81.7,69.5,59.0,72.0,64.2,55.0,95,84,69,30.11,29.91,6,0,6,0.19
2013-7-23,76.8,70.4,67.2,71.0,68.2,66.0,97,93,81,29.91,29.64,5,0,9,1.00
2013-7-24,76.4,67.2,55.5,68.0,60.9,49.0,97,81,59,30.12,29.68,5,1,11,0.00
2013-7-25,70.3,60.0,48.4,59.0,52.7,46.0,93,78,62,30.21,30.11,8,1,13,0.00
2013-7-26,72.3,63.6,58.3,61.0,56.4,53.0,91,78,61,30.18,30.10,8,1,11,0.00
2013-7-27,79.4,66.6,54.4,67.0,60.6,53.0,97,82,55,30.15,30.03,5,1,8,0.00
2013-7-28,74.1,68.2,63.3,69.0,65.3,61.0,96,90,77,30.07,30.00,7,0,10,0.19
2013-7-29,77.2,69.1,60.6,67.0,63.5,57.0,96,83,59,30.18,30.04,7,1,9,0.00
2013-7-30,74.4,65.2,55.0,64.0,59.5,53.0,96,82,66,30.24,30.15,8,1,10,0.00
2013-7-31,76.7,66.6,56.5,65.0,60.3,55.0,96,81,57,30.25,30.11,6,1,8,0.00
2013-8-1,75.5,64.4,56.8,67.0,61.7,55.0,96,91,74,30.12,29.92,9,1,14,0.24
2013-8-2,77.9,68.4,60.5,65.0,62.3,58.0,97,82,54,29.96,29.89,6,0,8,0.00
2013-8-3,76.2,65.2,58.1,65.0,59.1,55.0,95,82,55,29.95,29.89,4,0,11,0.10
2013-8-4,70.4,61.4,53.6,64.0,56.5,52.0,95,84,66,30.04,29.92,5,1,11,0.65
2013-8-5,72.5,60.7,50.3,55.0,50.7,46.0,95,73,43,30.15,30.04,5,0,11,0.00
2013-8-6,72.7,60.8,48.3,61.0,54.0,47.0,96,80,55,30.22,30.15,4,0,7,0.00
2013-8-7,75.1,67.2,58.5,65.0,61.9,57.0,95,83,67,30.23,30.11,9,2,12,0.01
2013-8-8,80.3,72.8,67.3,72.0,68.4,64.0,95,86,75,30.11,30.04,7,1,9,0.03
2013-8-9,75.3,72.2,70.1,73.0,70.7,69.0,96,95,91,30.01,29.85,6,0,7,0.13
2013-8-10,77.4,68.1,56.3,68.0,58.6,51.0,96,74,40,30.14,29.91,5,1,9,0.00
2013-8-11,73.4,62.5,52.3,60.0,55.4,50.0,95,79,56,30.20,30.09,6,1,10,0.00
2013-8-12,76.4,65.0,54.0,64.0,58.6,52.0,96,81,58,30.14,30.00,6,1,10,0.00
2013-8-13,67.2,63.9,60.5,66.0,62.5,59.0,96,95,92,29.99,29.77,1,0,4,0.65
2013-8-14,69.1,59.8,52.8,60.0,54.7,51.0,95,84,63,30.09,29.84,7,1,10,0.01
2013-8-15,70.1,58.9,49.4,59.0,53.3,48.0,96,83,58,30.22,30.09,6,1,8,0.00
2013-8-16,75.1,61.5,50.9,62.0,55.5,49.0,96,82,56,30.31,30.21,5,1,10,0.00
2013-8-17,79.1,63.8,52.9,63.0,57.5,52.0,96,82,50,30.39,30.31,4,0,6,0.00
2013-8-18,73.4,63.8,56.5,65.0,59.9,55.0,96,87,73,30.37,30.19,2,0,4,0.00
2013-8-19,77.1,66.2,58.0,67.0,61.8,57.0,96,86,70,30.20,30.06,6,1,9,0.00
2013-8-20,80.5,67.5,57.5,69.0,62.1,56.0,97,84,64,30.21,30.11,6,1,8,0.00
2013-8-21,82.1,69.3,59.5,69.0,63.8,58.0,96,83,62,30.26,30.11,5,1,9,0.00
2013-8-22,83.2,71.5,60.7,70.0,65.3,59.0,95,82,60,30.12,29.90,8,1,12,0.21
2013-8-23,71.8,64.7,55.6,65.0,57.0,51.0,97,78,50,30.26,29.97,10,1,13,0.00
2013-8-24,75.6,60.2,48.0,58.0,52.1,46.0,95,77,44,30.44,30.27,4,0,6,0.00
2013-8-25,76.5,62.9,48.2,64.0,56.3,47.0,96,80,56,30.49,30.24,7,1,10,0.00
2013-8-26,76.2,68.0,61.7,69.0,64.4,60.0,95,89,76,30.25,29.98,6,1,9,0.25
2013-8-27,79.9,71.0,66.5,71.0,68.0,65.0,97,90,70,30.00,29.94,2,0,5,0.01
2013-8-28,85.1,71.8,64.7,73.0,67.2,64.0,97,86,64,30.01,29.90,4,0,5,0.00
2013-8-29,77.5,68.0,62.3,67.0,64.6,61.0,96,89,68,30.14,30.01,1,0,4,0.02
2013-8-30,79.1,71.1,65.3,70.0,66.9,64.0,95,87,73,30.09,29.88,7,1,10,0.00
2013-8-31,77.6,71.2,66.7,74.0,69.2,65.0,97,93,84,29.91,29.82,8,0,11,0.47
2013-9-1,79.3,72.0,67.0,73.0,69.3,66.0,97,91,79,29.94,29.88,1,0,5,0.06
2013-9-2,78.4,70.7,63.3,73.0,68.4,62.0,97,92,81,29.90,29.74,5,0,11,1.91
2013-9-3,72.4,65.6,59.9,65.0,61.9,58.0,97,88,70,29.93,29.81,5,0,10,0.01
2013-9-4,75.3,65.5,57.1,62.0,58.8,56.0,96,80,59,30.03,29.94,9,1,12,0.00
2013-9-5,67.1,59.1,47.6,59.0,50.4,43.0,95,75,43,30.28,29.96,8,1,10,0.02
2013-9-6,65.9,53.1,42.8,50.0,45.2,40.0,96,77,47,30.38,30.22,5,0,8,0.00
2013-9-7,69.4,57.3,46.9,60.0,52.6,45.0,95,85,59,30.22,29.96,6,1,10,0.04
2013-9-8,65.5,58.2,45.8,59.0,51.7,43.0,95,80,55,30.23,29.89,6,1,13,0.00
2013-9-9,65.1,53.6,40.7,54.0,47.7,39.0,95,81,57,30.34,30.18,7,1,12,0.00
2013-9-10,72.4,64.6,54.9,70.0,62.5,52.0,96,93,86,30.21,30.08,5,0,9,0.20
2013-9-11,88.2,73.8,64.7,79.0,70.4,64.0,97,90,72,30.16,29.99,6,1,19,0.45
2013-9-12,80.4,70.1,66.5,73.0,68.1,65.0,97,93,76,30.03,29.73,9,1,10,0.73
2013-9-13,66.9,59.7,51.9,66.0,58.3,51.0,97,95,91,29.96,29.70,5,1,13,0.34
2013-9-14,61.3,54.6,49.4,55.0,50.9,48.0,96,87,72,30.21,29.96,2,0,6,0.01
2013-9-15,64.3,54.3,44.0,57.0,50.7,43.0,96,88,72,30.29,30.15,8,1,9,0.00
2013-9-16,58.9,52.3,41.8,56.0,48.7,38.0,96,87,75,30.42,30.14,9,2,14,0.12
2013-9-17,61.5,48.0,36.5,48.0,41.9,35.0,95,81,57,30.58,30.43,4,0,10,0.00
2013-9-18,66.8,52.1,41.7,52.0,46.8,40.0,97,84,55,30.46,30.25,6,0,8,0.00
2013-9-19,73.6,55.8,44.4,58.0,50.7,43.0,97,84,57,30.28,30.15,0,0,0,0.00
2013-9-20,76.5,59.9,46.7,63.0,55.0,46.0,97,85,57,30.20,30.04,0,0,1,0.00
2013-9-21,72.0,63.9,54.2,63.0,58.5,53.0,96,83,62,30.06,29.69,13,2,19,0.22
2013-9-22,63.9,57.0,47.4,62.0,51.6,43.0,95,83,59,30.01,29.68,7,1,11,0.53
2013-9-23,57.7,48.7,41.4,45.0,41.6,39.0,93,77,59,30.18,30.01,6,1,10,0.00
2013-9-24,62.4,48.5,38.9,50.0,43.2,37.0,97,83,60,30.17,29.99,5,0,8,0.00
2013-9-25,67.3,53.1,40.6,55.0,47.8,39.0,100,83,58,30.10,30.00,4,0,7,0.00
2013-9-26,61.3,53.5,45.0,51.0,47.8,43.0,94,81,66,30.26,30.10,6,1,9,0.00
2013-9-27,58.9,50.5,43.1,53.0,47.6,42.0,96,90,78,30.41,30.26,0,0,0,0.00
2013-9-28,71.6,54.0,43.4,58.0,49.9,42.0,97,87,59,30.48,30.36,0,0,0,0.00
2013-9-29,71.7,56.1,45.2,59.0,51.9,44.0,97,87,61,30.35,30.17,0,0,0,0.01
2013-9-30,71.0,55.3,45.7,57.0,50.5,44.0,97,85,54,30.21,30.07,0,0,1,0.00
2013-10-1,72.4,56.8,45.0,62.0,52.8,44.0,97,87,68,30.13,29.98,0,0,0,0.00
2013-10-2,73.5,60.6,49.5,64.0,56.2,48.0,97,86,71,30.11,29.97,9,1,12,0.00
2013-10-3,67.9,56.5,46.0,56.0,51.2,45.0,97,84,58,30.23,30.11,5,0,7,0.00
2013-10-4,59.8,55.3,49.7,58.0,53.7,48.0,96,94,92,30.20,30.14,1,0,4,0.33
2013-10-5,60.2,57.0,54.9,56.0,53.8,52.0,94,89,83,30.22,30.16,3,0,7,0.00
2013-10-6,59.6,56.2,52.6,57.0,54.1,50.0,96,93,81,30.22,30.13,4,0,4,0.45
2013-10-7,73.1,62.8,52.1,66.0,59.5,51.0,96,89,75,30.13,29.70,14,3,27,0.65
2013-10-8,61.4,50.8,41.8,51.0,44.5,40.0,97,81,52,30.49,30.04,4,0,8,0.00
2013-10-9,65.3,47.2,35.2,48.0,41.1,34.0,96,81,51,30.59,30.46,2,0,5,0.01
2013-10-10,60.3,49.1,38.7,53.0,45.4,37.0,96,87,72,30.47,30.27,4,0,5,0.00
2013-10-11,69.3,55.4,47.1,55.0,49.4,45.0,96,82,52,30.27,30.19,5,0,8,0.00
2013-10-12,70.0,54.3,41.9,57.0,48.1,41.0,96,81,57,30.46,30.26,7,1,11,0.00
2013-10-13,66.9,54.1,44.2,52.0,48.3,42.0,96,82,55,30.52,30.41,6,0,7,0.00
2013-10-14,62.3,54.9,46.0,55.0,50.3,44.0,95,85,72,30.45,30.34,6,1,9,0.00
2013-10-15,63.7,57.8,51.8,57.0,54.5,50.0,94,89,79,30.36,30.20,2,0,4,0.00
2013-10-16,63.0,55.7,48.5,56.0,52.3,47.0,96,88,76,30.21,29.94,6,0,9,0.00
2013-10-17,65.1,58.7,52.9,56.0,52.4,48.0,93,80,59,29.97,29.71,6,1,11,0.21
2013-10-18,60.2,54.0,42.7,52.0,47.4,39.0,96,79,54,30.04,29.68,6,1,10,0.24
2013-10-19,62.2,49.5,37.1,49.0,42.4,36.0,95,79,50,30.05,29.78,8,1,12,0.08
2013-10-20,54.0,47.7,39.1,49.0,41.6,36.0,93,80,60,30.14,29.77,5,1,10,0.04
2013-10-21,62.5,50.4,37.8,46.0,41.6,36.0,95,74,49,30.21,30.01,8,1,12,0.00
2013-10-22,54.8,49.2,35.7,49.0,42.9,33.0,92,79,64,30.01,29.84,7,1,11,0.06
2013-10-23,50.0,40.6,32.7,39.0,35.4,31.0,96,82,61,29.92,29.73,8,1,11,0.00
2013-10-24,45.9,40.0,33.2,36.0,33.8,31.0,92,79,62,30.03,29.82,8,1,11,0.00
2013-10-25,46.1,39.4,34.2,35.0,32.4,29.0,91,77,55,30.26,30.03,6,0,10,0.00
2013-10-26,48.9,43.0,36.4,36.0,34.0,31.0,90,72,53,30.26,29.94,9,2,19,0.00
2013-10-27,50.0,43.5,36.7,38.0,34.9,32.0,86,72,54,30.18,29.89,8,1,12,0.00
2013-10-28,52.2,41.4,29.6,40.0,32.2,23.0,87,71,49,30.49,30.17,7,1,13,0.00
2013-10-29,43.8,32.9,24.6,30.0,24.0,22.0,90,71,46,30.59,30.47,4,0,8,0.00
2013-10-30,46.9,37.0,30.1,40.0,32.3,25.0,93,83,74,30.47,30.32,8,1,9,0.00
2013-10-31,59.4,44.6,31.0,58.0,43.2,29.0,96,94,93,30.36,29.77,6,1,14,0.52
2013-11-1,66.9,60.0,48.8,61.0,53.6,43.0,93,81,56,29.77,29.46,11,2,24,0.63
2013-11-2,56.9,45.8,37.3,48.0,41.0,34.0,95,84,64,29.95,29.72,10,1,16,0.02
2013-11-3,38.9,33.8,25.5,34.0,22.7,16.0,83,65,46,30.61,29.97,13,4,21,0.00
2013-11-4,37.4,29.2,22.2,23.0,19.5,18.0,88,69,46,30.82,30.62,10,1,12,0.00
2013-11-5,48.7,36.6,24.3,37.0,30.0,21.0,89,78,60,30.80,30.58,8,1,16,0.00
2013-11-6,57.9,49.3,38.0,48.0,42.8,35.0,92,79,64,30.58,30.05,14,3,19,0.00
2013-11-7,56.2,48.4,33.5,51.0,42.3,26.0,95,80,57,30.04,29.87,8,1,15,0.32
2013-11-8,43.6,34.8,28.7,36.0,27.3,23.0,93,75,50,30.26,29.98,6,1,12,0.00
2013-11-9,42.2,34.8,25.2,34.0,28.2,22.0,90,77,62,30.35,30.04,10,1,12,0.00
2013-11-10,45.3,42.0,39.2,41.0,35.8,30.0,90,78,67,30.06,29.86,6,1,13,0.03
2013-11-11,43.8,40.4,34.5,36.0,31.5,28.0,81,71,62,30.24,30.01,10,1,14,0.00
2013-11-12,41.5,30.2,24.9,36.0,20.6,16.0,86,68,56,30.39,30.03,12,1,13,0.00
2013-11-13,33.3,26.4,17.7,22.0,16.0,12.0,81,66,43,30.48,30.27,4,0,10,0.00
2013-11-14,46.1,34.1,26.4,29.0,23.2,20.0,87,66,49,30.26,30.18,10,1,14,0.00
2013-11-15,52.6,35.5,24.3,31.0,25.1,22.0,91,70,33,30.32,30.22,8,1,12,0.00
2013-11-16,55.1,40.2,31.7,39.0,31.7,28.0,90,73,47,30.42,30.31,6,1,11,0.00
2013-11-17,56.8,47.2,31.6,54.0,44.5,29.0,94,90,82,30.37,29.80,12,1,13,0.11
2013-11-18,60.5,51.9,40.9,57.0,43.9,31.0,94,75,57,29.84,29.54,15,3,26,0.22
2013-11-19,39.3,34.0,26.4,32.0,23.3,17.0,85,65,54,30.51,29.84,8,1,14,0.00
2013-11-20,35.4,26.4,19.0,21.0,18.3,15.0,87,73,51,30.77,30.51,6,0,10,0.00
2013-11-21,40.5,29.0,16.6,30.0,22.6,14.0,92,78,54,30.77,30.49,5,0,9,0.00
2013-11-22,43.2,38.8,33.2,42.0,37.2,30.0,96,94,89,30.49,29.98,4,0,5,0.19
2013-11-23,42.7,33.8,24.9,41.0,23.8,12.0,95,67,52,30.13,29.93,8,1,12,0.00
2013-11-24,25.0,19.0,13.1,17.0,5.5,2.0,84,56,46,30.42,30.00,9,2,21,0.00
2013-11-25,31.3,20.9,7.7,19.0,11.5,3.0,86,68,55,30.56,30.33,10,2,14,0.00
2013-11-26,34.3,30.9,27.1,31.0,26.7,16.0,94,85,54,30.41,30.07,5,1,11,0.22
2013-11-27,42.3,35.4,32.0,41.0,34.1,31.0,96,95,92,30.06,29.50,5,0,8,1.11
2013-11-28,31.8,23.5,13.6,30.0,15.2,10.0,94,72,50,30.57,29.70,5,1,9,0.00
2013-11-29,27.4,18.2,10.4,17.0,11.8,7.0,90,77,54,30.89,30.57,3,0,10,0.00
2013-11-30,29.4,19.0,6.2,21.0,11.7,3.0,89,75,54,30.93,30.49,7,1,13,0.00
2013-12-1,39.1,31.8,25.4,32.0,27.2,22.0,90,83,73,30.48,30.14,3,0,9,0.01
2013-12-2,36.9,32.8,29.3,34.0,30.1,27.0,92,89,83,30.14,30.02,2,0,2,0.00
2013-12-3,40.6,31.8,26.2,36.0,29.6,25.0,94,91,83,30.13,30.02,2,0,4,0.00
2013-12-4,38.1,29.1,22.2,30.0,25.5,21.0,94,87,66,30.28,30.13,2,0,4,0.00
2013-12-5,54.4,41.5,26.4,51.0,38.8,24.0,95,90,84,30.28,29.98,6,0,11,0.00
2013-12-6,51.6,39.2,31.6,50.0,36.7,29.0,95,91,82,30.29,30.00,2,0,5,0.27
2013-12-7,35.0,30.2,23.4,29.0,24.0,17.0,94,78,61,30.60,30.25,4,0,10,0.00
2013-12-8,29.9,25.2,19.8,20.0,17.4,15.0,87,73,57,30.72,30.57,1,0,5,0.00
2013-12-9,32.3,28.0,25.0,31.0,25.2,18.0,94,89,71,30.56,30.02,6,0,9,0.00
2013-12-10,31.8,27.0,18.6,28.0,21.4,12.0,95,80,60,30.11,29.94,7,1,10,0.00
2013-12-11,30.1,23.9,18.4,19.0,15.5,11.0,86,71,48,30.30,30.12,8,1,16,0.00
2013-12-12,21.6,17.2,10.1,13.0,6.9,0.0,79,64,44,30.44,30.14,8,1,10,0.00
2013-12-13,24.3,17.4,6.2,17.0,9.5,-1.0,83,71,59,30.57,30.07,6,1,9,0.00
2013-12-14,11.7,7.8,4.2,8.0,1.4,-3.0,88,75,64,30.73,30.20,7,1,13,0.00
2013-12-15,25.6,21.3,11.0,23.0,19.0,8.0,93,90,86,30.19,29.67,4,0,8,0.00
2013-12-16,21.7,14.0,-2.8,17.0,8.0,-7.0,90,78,56,30.36,29.86,7,1,9,0.00
2013-12-17,14.0,2.3,-12.1,11.0,-1.0,-16.0,89,86,81,30.38,30.15,0,0,1,0.00
2013-12-18,25.8,17.7,8.4,23.0,14.9,6.0,92,88,82,30.19,30.10,5,0,8,0.00
2013-12-19,37.4,30.2,24.8,28.0,24.6,21.0,90,80,63,30.22,30.08,7,1,11,0.06
2013-12-20,41.8,34.3,31.1,34.0,31.2,28.0,95,89,73,30.21,30.01,2,0,6,0.38
2013-12-21,40.5,36.1,33.3,40.0,35.0,32.0,96,95,95,30.03,29.95,5,0,7,0.15
2013-12-22,34.5,31.4,28.2,34.0,30.3,27.0,100,95,94,30.06,29.79,5,1,11,0.00
2013-12-23,36.2,34.3,29.5,35.0,33.4,28.0,100,96,95,30.30,30.06,0,0,4,0.00
2013-12-24,29.2,23.8,16.8,28.0,17.7,9.0,95,78,64,30.43,30.24,4,0,8,0.00
2013-12-25,16.4,12.4,5.7,10.0,4.4,-1.0,81,70,63,30.68,30.43,7,0,9,0.00
2013-12-26,28.0,24.2,14.5,25.0,20.6,10.0,93,86,70,30.53,30.23,7,1,11,0.00
2013-12-27,30.5,26.1,20.6,26.0,21.7,18.0,91,83,71,30.41,30.32,9,1,11,0.00
2013-12-28,36.2,26.2,14.7,31.0,23.1,12.0,93,88,78,30.32,30.16,1,0,2,0.00
2013-12-29,32.9,27.4,19.8,32.0,25.8,18.0,95,93,92,30.16,29.71,2,0,2,0.00
2013-12-30,33.6,24.6,8.3,33.0,18.8,4.0,96,79,57,30.33,29.75,7,1,11,0.00
2013-12-31,18.9,13.0,6.3,15.0,8.1,2.0,89,80,71,30.31,30.14,5,1,9,0.00
2014-1-1,19.9,13.4,5.1,14.0,8.0,2.0,89,79,69,30.53,30.31,9,1,12,0.00
2014-1-2,7.5,-0.2,-6.4,2.0,-4.4,-11.0,84,82,79,30.51,30.09,9,3,15,0.00